createdAt,value
2023-07-26T00:02:45.699Z,4.2
2023-07-26T00:07:45.647Z,4.1
2023-07-26T00:12:45.654Z,4.3
2023-07-26T00:17:45.687Z,4.4
2023-07-26T00:22:45.653Z,3.8
2023-07-26T00:27:45.649Z,4.9
2023-07-26T00:32:45.693Z,4.6
2023-07-26T00:37:45.667Z,4.4
2023-07-26T00:42:45.685Z,4.0
2023-07-26T00:47:45.730Z,4.5
2023-07-26T00:52:45.666Z,3.9
2023-07-26T00:57:45.661Z,4.3
2023-07-26T01:02:45.798Z,4.0
2023-07-26T01:07:45.690Z,4.1
2023-07-26T01:12:45.668Z,4.1
2023-07-26T01:17:45.684Z,4.6
2023-07-26T01:22:45.670Z,4.2
2023-07-26T01:27:45.673Z,4.1
2023-07-26T01:32:45.702Z,4.2
2023-07-26T01:37:45.679Z,4.9
2023-07-26T01:42:45.675Z,5.4
2023-07-26T01:47:45.707Z,5.1
2023-07-26T01:52:45.675Z,5.0
2023-07-26T01:57:45.681Z,4.9
2023-07-26T02:02:45.714Z,5.2
2023-07-26T02:07:45.700Z,4.7
2023-07-26T02:12:45.680Z,4.3
2023-07-26T02:17:45.729Z,4.6
2023-07-26T02:22:45.692Z,4.4
2023-07-26T02:27:45.692Z,5.0
2023-07-26T02:32:45.722Z,5.0
2023-07-26T02:37:45.692Z,5.3
2023-07-26T02:42:45.695Z,5.0
2023-07-26T02:47:45.735Z,4.9
2023-07-26T02:52:45.706Z,4.8
2023-07-26T02:57:45.699Z,5.0
2023-07-26T03:02:45.763Z,5.0
2023-07-26T03:07:45.698Z,5.3
2023-07-26T03:12:45.702Z,5.1
2023-07-26T03:17:45.737Z,5.3
2023-07-26T03:22:45.736Z,5.2
2023-07-26T03:27:45.701Z,5.2
2023-07-26T03:32:45.739Z,4.8
2023-07-26T03:37:45.733Z,4.5
2023-07-26T03:42:45.726Z,5.2
2023-07-26T03:47:45.760Z,5.6
2023-07-26T03:52:45.706Z,5.3
2023-07-26T03:57:45.720Z,5.7
2023-07-26T04:02:45.860Z,5.6
2023-07-26T04:07:45.717Z,5.5
2023-07-26T04:12:45.731Z,5.4
2023-07-26T04:17:45.751Z,5.5
2023-07-26T04:22:45.730Z,5.7
2023-07-26T04:27:45.737Z,5.7
2023-07-26T04:32:45.776Z,5.4
2023-07-26T04:37:45.733Z,5.7
2023-07-26T04:42:45.739Z,5.9
2023-07-26T04:47:45.761Z,5.8
2023-07-26T04:52:45.734Z,6.0
2023-07-26T04:57:45.747Z,6.3
2023-07-26T05:02:45.770Z,6.2
2023-07-26T05:07:45.744Z,6.3
2023-07-26T05:12:45.749Z,6.3
2023-07-26T05:17:45.770Z,6.3
2023-07-26T05:22:45.746Z,6.0
2023-07-26T05:27:45.748Z,6.1
2023-07-26T05:32:45.772Z,5.9
2023-07-26T05:37:45.759Z,6.8
2023-07-26T05:42:45.757Z,7.0
2023-07-26T05:47:45.842Z,7.6
2023-07-26T05:52:45.766Z,6.0
2023-07-26T05:57:45.788Z,5.9
2023-07-26T06:02:45.815Z,6.2
2023-07-26T06:07:45.769Z,5.6
2023-07-26T06:12:45.777Z,6.4
2023-07-26T06:17:45.821Z,6.4
2023-07-26T06:27:45.777Z,6.6
2023-07-26T06:32:45.823Z,6.2
2023-07-26T06:37:45.798Z,6.8
2023-07-26T06:42:45.801Z,6.6
2023-07-26T06:47:45.855Z,6.7
2023-07-26T06:52:45.801Z,7.0
2023-07-26T06:57:45.794Z,6.8
2023-07-26T07:02:45.834Z,7.6
2023-07-26T07:07:45.793Z,7.4
2023-07-26T07:12:45.805Z,7.5
2023-07-26T07:17:45.825Z,7.5
2023-07-26T07:22:45.810Z,7.8
2023-07-26T07:27:45.801Z,8.1
2023-07-26T07:32:45.956Z,8.3
2023-07-26T07:37:45.811Z,8.4
2023-07-26T07:42:45.815Z,7.8
2023-07-26T07:47:45.858Z,8.5
2023-07-26T07:52:45.817Z,8.6
2023-07-26T07:57:45.854Z,9.5
2023-07-26T08:02:45.826Z,8.9
2023-07-26T08:07:45.869Z,9.2
2023-07-26T08:12:45.824Z,9.2
2023-07-26T08:17:45.857Z,9.2
2023-07-26T08:22:45.838Z,9.5
2023-07-26T08:27:45.830Z,10.1
2023-07-26T08:32:45.988Z,9.7
2023-07-26T08:37:45.838Z,9.2
2023-07-26T08:42:45.849Z,7.5
2023-07-26T08:47:45.948Z,7.1
2023-07-26T08:52:45.850Z,7.6
2023-07-26T08:57:45.881Z,7.6
2023-07-26T09:02:45.986Z,7.5
2023-07-26T09:07:45.879Z,7.2
2023-07-26T09:12:45.865Z,6.6
2023-07-26T09:17:46.167Z,7.0
2023-07-26T09:22:45.880Z,7.1
2023-07-26T09:27:45.879Z,6.7
2023-07-26T09:32:45.944Z,6.9
2023-07-26T09:37:45.880Z,7.5
2023-07-26T09:42:46.858Z,6.8
2023-07-26T09:47:45.899Z,6.7
2023-07-26T09:57:45.893Z,6.3
2023-07-26T10:02:45.945Z,5.6
2023-07-26T10:07:45.896Z,4.5
2023-07-26T10:12:45.895Z,5.1
2023-07-26T10:17:45.950Z,4.8
2023-07-26T10:22:45.912Z,4.6
2023-07-26T10:27:45.904Z,4.6
2023-07-26T10:32:45.951Z,4.9
2023-07-26T10:37:45.904Z,4.5
2023-07-26T10:42:45.901Z,4.0
2023-07-26T10:47:45.950Z,4.7
2023-07-26T10:52:45.909Z,4.9
2023-07-26T10:57:45.910Z,5.3
2023-07-26T11:02:46.017Z,5.4
2023-07-26T11:07:45.922Z,4.1
2023-07-26T11:12:45.916Z,3.9
2023-07-26T11:17:45.949Z,3.7
2023-07-26T11:22:45.927Z,3.2
2023-07-26T11:27:45.920Z,4.0
2023-07-26T11:32:45.945Z,4.2
2023-07-26T11:37:45.930Z,4.2
2023-07-26T11:42:45.947Z,4.8
2023-07-26T11:47:45.956Z,4.1
2023-07-26T11:52:45.943Z,4.0
2023-07-26T11:57:45.937Z,3.9
2023-07-26T12:02:45.977Z,3.7
2023-07-26T12:07:45.963Z,3.8
2023-07-26T12:12:45.981Z,3.7
2023-07-26T12:17:46.541Z,3.8
2023-07-26T12:22:45.963Z,3.4
2023-07-26T12:27:45.979Z,3.1
2023-07-26T12:32:46.009Z,2.4
2023-07-26T12:37:46.361Z,2.9
2023-07-26T12:42:45.968Z,2.6
2023-07-26T12:47:45.976Z,2.4
2023-07-26T12:52:46.018Z,2.3
2023-07-26T12:57:45.983Z,2.3
2023-07-26T13:02:46.094Z,2.5
2023-07-26T13:07:45.979Z,2.6
2023-07-26T13:12:45.984Z,2.2
2023-07-26T13:17:46.006Z,2.7
2023-07-26T13:22:45.983Z,2.3
2023-07-26T13:27:45.989Z,2.1
2023-07-26T13:32:46.112Z,2.2
2023-07-26T13:37:45.986Z,2.1
2023-07-26T13:42:45.984Z,1.7
2023-07-26T13:47:46.122Z,2.0
2023-07-26T13:52:45.996Z,1.8
2023-07-26T13:57:45.997Z,1.7
2023-07-26T14:02:46.058Z,1.9
2023-07-26T14:07:46.017Z,2.1
2023-07-26T14:12:46.032Z,1.9
2023-07-26T14:17:46.047Z,1.8
2023-07-26T14:22:46.012Z,2.0
2023-07-26T14:27:46.023Z,2.3
2023-07-26T14:32:46.076Z,2.0
2023-07-26T14:37:46.029Z,2.4
2023-07-26T14:42:46.012Z,2.2
2023-07-26T14:47:46.078Z,2.2
2023-07-26T14:52:46.023Z,2.1
2023-07-26T14:57:46.031Z,1.9
2023-07-26T15:02:46.099Z,1.8
2023-07-26T15:07:46.029Z,2.0
2023-07-26T15:12:46.030Z,2.0
2023-07-26T15:17:46.127Z,2.2
2023-07-26T15:22:46.045Z,1.8
2023-07-26T15:27:46.067Z,1.9
2023-07-26T15:32:46.109Z,2.0
2023-07-26T15:37:46.048Z,2.1
2023-07-26T15:42:49.393Z,2.2
2023-07-26T15:47:46.092Z,2.2
2023-07-26T15:52:46.059Z,2.3
2023-07-26T15:57:46.069Z,2.0
2023-07-26T16:12:46.070Z,2.2
2023-07-26T16:22:46.098Z,2.2
2023-07-26T16:27:46.075Z,2.1
2023-07-26T16:32:46.161Z,2.2
2023-07-26T16:37:46.075Z,2.1
2023-07-26T16:42:46.107Z,2.1
2023-07-26T16:47:46.090Z,2.0
2023-07-26T16:52:46.093Z,1.9
2023-07-26T16:57:46.095Z,2.0
2023-07-26T17:02:46.144Z,2.2
2023-07-26T17:07:46.113Z,2.0
2023-07-26T17:12:46.113Z,1.8
2023-07-26T17:17:46.135Z,1.8
2023-07-26T17:22:46.138Z,1.9
2023-07-26T17:27:46.128Z,1.7
2023-07-26T17:32:46.141Z,2.2
2023-07-26T17:37:46.167Z,2.1
2023-07-26T17:42:46.162Z,1.9
2023-07-26T17:47:46.168Z,1.7
2023-07-26T17:52:46.104Z,1.8
2023-07-26T17:57:55.580Z,1.7
2023-07-26T18:02:46.190Z,2.2
2023-07-26T18:07:46.129Z,2.2
2023-07-26T18:12:46.145Z,2.1
2023-07-26T18:17:46.192Z,2.1
2023-07-26T18:22:46.130Z,1.9
2023-07-26T18:27:46.132Z,2.3
2023-07-26T18:32:46.161Z,2.2
2023-07-26T18:37:46.126Z,2.0
2023-07-26T18:42:46.129Z,2.4
2023-07-26T18:47:46.138Z,2.1
2023-07-26T18:52:46.119Z,2.1
2023-07-26T18:57:46.978Z,1.8
2023-07-26T19:02:46.224Z,2.2
2023-07-26T19:07:46.115Z,2.0
2023-07-26T19:12:46.124Z,2.2
2023-07-26T19:17:46.181Z,2.1
2023-07-26T19:22:46.125Z,2.5
2023-07-26T19:27:46.122Z,2.5
2023-07-26T19:32:46.181Z,2.4
2023-07-26T19:37:46.126Z,2.7
2023-07-26T19:42:46.138Z,2.6
2023-07-26T19:47:46.169Z,2.8
2023-07-26T19:52:46.139Z,2.8
2023-07-26T19:57:46.147Z,2.8
2023-07-26T20:02:46.261Z,2.8
2023-07-26T20:07:46.147Z,3.0
2023-07-26T20:12:46.150Z,3.3
2023-07-26T20:17:46.183Z,3.4
2023-07-26T20:22:46.148Z,4.7
2023-07-26T20:27:46.140Z,4.4
2023-07-26T20:32:46.187Z,5.0
2023-07-26T20:37:46.151Z,4.6
2023-07-26T20:42:46.158Z,4.0
2023-07-26T20:47:46.149Z,4.5
2023-07-26T20:52:46.159Z,4.8
2023-07-26T20:57:46.159Z,4.0
2023-07-26T21:02:46.221Z,3.8
2023-07-26T21:07:46.154Z,3.6
2023-07-26T21:12:46.179Z,3.8
2023-07-26T21:17:46.251Z,3.5
2023-07-26T21:22:46.161Z,4.2
2023-07-26T21:27:46.159Z,3.7
2023-07-26T21:32:46.221Z,3.7
2023-07-26T21:37:46.162Z,4.1
2023-07-26T21:42:46.180Z,4.2
2023-07-26T21:47:46.193Z,3.6
2023-07-26T21:52:46.176Z,3.8
2023-07-26T21:57:46.182Z,3.9
2023-07-26T22:02:46.213Z,3.8
2023-07-26T22:07:46.180Z,4.0
2023-07-26T22:12:46.176Z,4.4
2023-07-26T22:17:46.262Z,3.8
2023-07-26T22:22:46.187Z,4.2
2023-07-26T22:27:46.189Z,4.1
2023-07-26T22:32:46.239Z,4.4
2023-07-26T22:37:46.188Z,4.1
2023-07-26T22:42:46.204Z,4.3
2023-07-26T22:47:46.222Z,3.7
2023-07-26T22:52:46.192Z,3.7
2023-07-26T22:57:46.201Z,3.6
2023-07-26T23:02:46.226Z,4.1
2023-07-26T23:07:46.196Z,4.4
2023-07-26T23:12:46.201Z,5.2
2023-07-26T23:17:46.217Z,5.8
2023-07-26T23:22:46.215Z,5.3
2023-07-26T23:27:46.211Z,5.7
2023-07-26T23:32:46.315Z,5.5
2023-07-26T23:37:46.208Z,5.4
2023-07-26T23:42:46.215Z,5.8
2023-07-26T23:47:46.271Z,6.0
2023-07-26T23:52:46.214Z,6.0
2023-07-26T23:57:46.226Z,5.1
